sensor_id;sensor_type;location;lat;lon;timestamp;P1;durP1;ratioP1;P2;durP2;ratioP2
24259;SDS011;12384;48.112;18.418;2022-10-16T00:01:40;17.17;;;15.73;;
24259;SDS011;12384;48.112;18.418;2022-10-16T00:04:09;17.73;;;16.23;;
24259;SDS011;12384;48.112;18.418;2022-10-16T00:06:38;18.93;;;17.33;;
24259;SDS011;12384;48.112;18.418;2022-10-16T00:09:06;17.47;;;16.07;;
24259;SDS011;12384;48.112;18.418;2022-10-16T00:11:36;18.27;;;16.50;;
24259;SDS011;12384;48.112;18.418;2022-10-16T00:14:08;17.20;;;15.80;;
24259;SDS011;12384;48.112;18.418;2022-10-16T00:16:37;18.00;;;16.70;;
24259;SDS011;12384;48.112;18.418;2022-10-16T00:19:08;18.80;;;17.30;;
24259;SDS011;12384;48.112;18.418;2022-10-16T00:21:38;17.73;;;16.43;;
24259;SDS011;12384;48.112;18.418;2022-10-16T00:24:07;17.37;;;16.07;;
24259;SDS011;12384;48.112;18.418;2022-10-16T00:26:37;16.93;;;15.60;;
24259;SDS011;12384;48.112;18.418;2022-10-16T00:29:06;17.87;;;16.47;;
24259;SDS011;12384;48.112;18.418;2022-10-16T00:31:35;19.63;;;17.70;;
24259;SDS011;12384;48.112;18.418;2022-10-16T00:34:04;20.20;;;18.37;;
24259;SDS011;12384;48.112;18.418;2022-10-16T00:36:34;17.90;;;16.50;;
24259;SDS011;12384;48.112;18.418;2022-10-16T00:39:02;18.70;;;16.97;;
24259;SDS011;12384;48.112;18.418;2022-10-16T00:41:31;18.53;;;16.93;;
24259;SDS011;12384;48.112;18.418;2022-10-16T00:44:01;21.80;;;19.77;;
24259;SDS011;12384;48.112;18.418;2022-10-16T00:46:35;24.03;;;21.83;;
24259;SDS011;12384;48.112;18.418;2022-10-16T00:49:05;23.20;;;21.00;;
24259;SDS011;12384;48.112;18.418;2022-10-16T00:51:38;19.93;;;18.20;;
24259;SDS011;12384;48.112;18.418;2022-10-16T00:54:09;19.07;;;17.37;;
24259;SDS011;12384;48.112;18.418;2022-10-16T00:56:41;19.27;;;17.67;;
24259;SDS011;12384;48.112;18.418;2022-10-16T00:59:15;17.80;;;16.30;;
24259;SDS011;12384;48.112;18.418;2022-10-16T01:01:45;18.97;;;17.17;;
24259;SDS011;12384;48.112;18.418;2022-10-16T01:04:14;19.73;;;18.00;;
24259;SDS011;12384;48.112;18.418;2022-10-16T01:06:46;17.93;;;16.53;;
24259;SDS011;12384;48.112;18.418;2022-10-16T01:09:23;17.63;;;16.13;;
24259;SDS011;12384;48.112;18.418;2022-10-16T01:11:59;19.40;;;17.73;;
24259;SDS011;12384;48.112;18.418;2022-10-16T01:14:36;19.67;;;17.93;;
24259;SDS011;12384;48.112;18.418;2022-10-16T01:17:14;20.70;;;18.93;;
24259;SDS011;12384;48.112;18.418;2022-10-16T01:22:47;20.57;;;18.47;;
24259;SDS011;12384;48.112;18.418;2022-10-16T01:25:31;18.87;;;17.30;;
24259;SDS011;12384;48.112;18.418;2022-10-16T01:28:14;17.17;;;15.80;;
24259;SDS011;12384;48.112;18.418;2022-10-16T01:30:43;18.73;;;16.97;;
24259;SDS011;12384;48.112;18.418;2022-10-16T01:33:14;18.80;;;17.20;;
24259;SDS011;12384;48.112;18.418;2022-10-16T01:35:47;19.17;;;17.57;;
24259;SDS011;12384;48.112;18.418;2022-10-16T01:38:21;17.80;;;16.27;;
24259;SDS011;12384;48.112;18.418;2022-10-16T01:40:58;17.93;;;16.53;;
24259;SDS011;12384;48.112;18.418;2022-10-16T01:43:31;17.87;;;16.57;;
24259;SDS011;12384;48.112;18.418;2022-10-16T01:46:03;17.60;;;16.07;;
24259;SDS011;12384;48.112;18.418;2022-10-16T01:48:34;17.73;;;16.33;;
24259;SDS011;12384;48.112;18.418;2022-10-16T01:51:05;17.03;;;15.70;;
24259;SDS011;12384;48.112;18.418;2022-10-16T01:53:36;18.43;;;16.83;;
24259;SDS011;12384;48.112;18.418;2022-10-16T01:56:07;17.50;;;16.20;;
24259;SDS011;12384;48.112;18.418;2022-10-16T01:58:42;18.33;;;16.73;;
24259;SDS011;12384;48.112;18.418;2022-10-16T02:01:15;17.53;;;16.13;;
24259;SDS011;12384;48.112;18.418;2022-10-16T02:03:46;16.77;;;15.37;;
24259;SDS011;12384;48.112;18.418;2022-10-16T02:06:17;17.60;;;16.20;;
24259;SDS011;12384;48.112;18.418;2022-10-16T02:08:46;16.83;;;15.47;;
24259;SDS011;12384;48.112;18.418;2022-10-16T02:11:15;17.50;;;16.10;;
24259;SDS011;12384;48.112;18.418;2022-10-16T02:13:46;16.43;;;15.13;;
24259;SDS011;12384;48.112;18.418;2022-10-16T02:16:18;17.27;;;15.80;;
24259;SDS011;12384;48.112;18.418;2022-10-16T02:18:47;17.83;;;16.33;;
24259;SDS011;12384;48.112;18.418;2022-10-16T02:21:16;16.40;;;15.10;;
24259;SDS011;12384;48.112;18.418;2022-10-16T02:23:53;18.47;;;16.80;;
24259;SDS011;12384;48.112;18.418;2022-10-16T02:26:27;17.70;;;16.40;;
24259;SDS011;12384;48.112;18.418;2022-10-16T02:29:01;18.00;;;16.57;;
24259;SDS011;12384;48.112;18.418;2022-10-16T02:31:34;18.07;;;16.57;;
24259;SDS011;12384;48.112;18.418;2022-10-16T02:34:08;18.60;;;17.00;;
24259;SDS011;12384;48.112;18.418;2022-10-16T02:36:40;19.63;;;17.67;;
24259;SDS011;12384;48.112;18.418;2022-10-16T02:39:09;19.47;;;17.77;;
24259;SDS011;12384;48.112;18.418;2022-10-16T02:41:39;18.53;;;16.93;;
24259;SDS011;12384;48.112;18.418;2022-10-16T02:44:08;18.30;;;16.90;;
24259;SDS011;12384;48.112;18.418;2022-10-16T02:46:37;19.03;;;17.43;;
24259;SDS011;12384;48.112;18.418;2022-10-16T02:49:05;18.23;;;16.70;;
24259;SDS011;12384;48.112;18.418;2022-10-16T02:51:34;18.27;;;16.63;;
24259;SDS011;12384;48.112;18.418;2022-10-16T02:54:03;16.77;;;15.23;;
24259;SDS011;12384;48.112;18.418;2022-10-16T02:56:32;17.67;;;16.20;;
24259;SDS011;12384;48.112;18.418;2022-10-16T02:59:00;17.63;;;16.20;;
24259;SDS011;12384;48.112;18.418;2022-10-16T03:01:30;16.60;;;15.10;;
24259;SDS011;12384;48.112;18.418;2022-10-16T03:03:59;17.60;;;16.30;;
24259;SDS011;12384;48.112;18.418;2022-10-16T03:06:27;17.97;;;16.47;;
24259;SDS011;12384;48.112;18.418;2022-10-16T03:08:56;19.07;;;17.13;;
24259;SDS011;12384;48.112;18.418;2022-10-16T03:11:24;17.67;;;16.20;;
24259;SDS011;12384;48.112;18.418;2022-10-16T03:13:52;17.93;;;16.43;;
24259;SDS011;12384;48.112;18.418;2022-10-16T03:16:21;17.70;;;16.27;;
24259;SDS011;12384;48.112;18.418;2022-10-16T03:18:51;17.50;;;16.00;;
24259;SDS011;12384;48.112;18.418;2022-10-16T03:21:19;17.47;;;16.17;;
24259;SDS011;12384;48.112;18.418;2022-10-16T03:23:48;17.27;;;15.80;;
24259;SDS011;12384;48.112;18.418;2022-10-16T03:26:16;16.47;;;15.17;;
24259;SDS011;12384;48.112;18.418;2022-10-16T03:28:45;16.20;;;14.90;;
24259;SDS011;12384;48.112;18.418;2022-10-16T03:31:13;18.70;;;16.93;;
24259;SDS011;12384;48.112;18.418;2022-10-16T03:33:42;19.20;;;17.50;;
24259;SDS011;12384;48.112;18.418;2022-10-16T03:36:11;18.27;;;16.77;;
24259;SDS011;12384;48.112;18.418;2022-10-16T03:38:40;18.33;;;16.70;;
24259;SDS011;12384;48.112;18.418;2022-10-16T03:41:08;18.53;;;17.13;;
24259;SDS011;12384;48.112;18.418;2022-10-16T03:43:37;18.97;;;17.30;;
24259;SDS011;12384;48.112;18.418;2022-10-16T03:46:05;18.33;;;16.80;;
24259;SDS011;12384;48.112;18.418;2022-10-16T03:48:34;17.20;;;15.80;;
24259;SDS011;12384;48.112;18.418;2022-10-16T03:51:02;18.27;;;16.87;;
24259;SDS011;12384;48.112;18.418;2022-10-16T03:53:32;17.50;;;16.13;;
24259;SDS011;12384;48.112;18.418;2022-10-16T03:56:00;19.23;;;17.53;;
24259;SDS011;12384;48.112;18.418;2022-10-16T03:58:29;19.40;;;17.70;;
24259;SDS011;12384;48.112;18.418;2022-10-16T04:00:57;18.00;;;16.60;;
24259;SDS011;12384;48.112;18.418;2022-10-16T04:03:26;19.40;;;17.80;;
24259;SDS011;12384;48.112;18.418;2022-10-16T04:05:54;19.17;;;17.37;;
24259;SDS011;12384;48.112;18.418;2022-10-16T04:08:23;19.10;;;17.53;;
24259;SDS011;12384;48.112;18.418;2022-10-16T04:10:53;19.60;;;17.50;;
24259;SDS011;12384;48.112;18.418;2022-10-16T04:13:21;19.63;;;18.03;;
24259;SDS011;12384;48.112;18.418;2022-10-16T04:15:50;18.97;;;17.33;;
24259;SDS011;12384;48.112;18.418;2022-10-16T04:18:18;18.47;;;16.97;;
24259;SDS011;12384;48.112;18.418;2022-10-16T04:20:47;20.47;;;18.47;;
24259;SDS011;12384;48.112;18.418;2022-10-16T04:23:15;18.70;;;17.20;;
24259;SDS011;12384;48.112;18.418;2022-10-16T04:25:44;19.47;;;17.47;;
24259;SDS011;12384;48.112;18.418;2022-10-16T04:28:13;19.27;;;17.63;;
24259;SDS011;12384;48.112;18.418;2022-10-16T04:30:42;20.27;;;18.37;;
24259;SDS011;12384;48.112;18.418;2022-10-16T04:33:10;18.80;;;17.10;;
24259;SDS011;12384;48.112;18.418;2022-10-16T04:35:39;18.13;;;16.63;;
24259;SDS011;12384;48.112;18.418;2022-10-16T04:38:07;19.23;;;17.43;;
24259;SDS011;12384;48.112;18.418;2022-10-16T04:40:36;19.43;;;17.83;;
24259;SDS011;12384;48.112;18.418;2022-10-16T04:43:04;18.97;;;17.33;;
24259;SDS011;12384;48.112;18.418;2022-10-16T04:45:35;20.93;;;18.73;;
24259;SDS011;12384;48.112;18.418;2022-10-16T04:48:03;20.33;;;18.30;;
24259;SDS011;12384;48.112;18.418;2022-10-16T04:50:32;19.93;;;18.03;;
24259;SDS011;12384;48.112;18.418;2022-10-16T04:53:04;19.77;;;18.17;;
24259;SDS011;12384;48.112;18.418;2022-10-16T04:55:33;19.57;;;17.90;;
24259;SDS011;12384;48.112;18.418;2022-10-16T04:58:01;20.80;;;19.00;;
24259;SDS011;12384;48.112;18.418;2022-10-16T05:00:30;20.27;;;18.43;;
24259;SDS011;12384;48.112;18.418;2022-10-16T05:03:00;19.67;;;17.97;;
24259;SDS011;12384;48.112;18.418;2022-10-16T05:05:32;20.30;;;18.67;;
24259;SDS011;12384;48.112;18.418;2022-10-16T05:08:01;19.23;;;17.60;;
24259;SDS011;12384;48.112;18.418;2022-10-16T05:10:30;18.40;;;17.03;;
24259;SDS011;12384;48.112;18.418;2022-10-16T05:12:59;19.70;;;18.10;;
24259;SDS011;12384;48.112;18.418;2022-10-16T05:15:27;20.47;;;18.47;;
24259;SDS011;12384;48.112;18.418;2022-10-16T05:17:57;19.13;;;17.30;;
24259;SDS011;12384;48.112;18.418;2022-10-16T05:20:27;18.40;;;17.00;;
24259;SDS011;12384;48.112;18.418;2022-10-16T05:22:56;16.83;;;15.57;;
24259;SDS011;12384;48.112;18.418;2022-10-16T05:25:25;16.67;;;15.40;;
24259;SDS011;12384;48.112;18.418;2022-10-16T05:27:53;16.20;;;14.90;;
24259;SDS011;12384;48.112;18.418;2022-10-16T05:30:22;16.37;;;15.07;;
24259;SDS011;12384;48.112;18.418;2022-10-16T05:32:50;16.13;;;14.67;;
24259;SDS011;12384;48.112;18.418;2022-10-16T05:35:21;15.03;;;13.87;;
24259;SDS011;12384;48.112;18.418;2022-10-16T05:37:49;15.17;;;13.80;;
24259;SDS011;12384;48.112;18.418;2022-10-16T05:40:18;15.30;;;14.10;;
24259;SDS011;12384;48.112;18.418;2022-10-16T05:42:46;14.33;;;13.23;;
24259;SDS011;12384;48.112;18.418;2022-10-16T05:45:15;15.50;;;14.30;;
24259;SDS011;12384;48.112;18.418;2022-10-16T05:47:43;15.00;;;13.80;;
24259;SDS011;12384;48.112;18.418;2022-10-16T05:50:13;15.63;;;14.33;;
24259;SDS011;12384;48.112;18.418;2022-10-16T05:52:43;16.57;;;15.07;;
24259;SDS011;12384;48.112;18.418;2022-10-16T05:55:12;16.43;;;15.17;;
24259;SDS011;12384;48.112;18.418;2022-10-16T05:57:40;17.20;;;15.93;;
24259;SDS011;12384;48.112;18.418;2022-10-16T06:00:09;16.37;;;15.07;;
24259;SDS011;12384;48.112;18.418;2022-10-16T06:02:38;16.87;;;15.40;;
24259;SDS011;12384;48.112;18.418;2022-10-16T06:05:07;17.13;;;15.73;;
24259;SDS011;12384;48.112;18.418;2022-10-16T06:07:35;15.77;;;14.47;;
24259;SDS011;12384;48.112;18.418;2022-10-16T06:10:06;15.90;;;14.60;;
24259;SDS011;12384;48.112;18.418;2022-10-16T06:12:35;16.73;;;15.37;;
24259;SDS011;12384;48.112;18.418;2022-10-16T06:15:04;16.80;;;15.47;;
24259;SDS011;12384;48.112;18.418;2022-10-16T06:17:33;17.00;;;15.47;;
24259;SDS011;12384;48.112;18.418;2022-10-16T06:20:01;17.20;;;15.90;;
24259;SDS011;12384;48.112;18.418;2022-10-16T06:22:29;17.20;;;15.80;;
24259;SDS011;12384;48.112;18.418;2022-10-16T06:24:58;17.13;;;15.73;;
24259;SDS011;12384;48.112;18.418;2022-10-16T06:27:28;17.57;;;16.10;;
24259;SDS011;12384;48.112;18.418;2022-10-16T06:29:56;16.90;;;15.53;;
24259;SDS011;12384;48.112;18.418;2022-10-16T06:32:25;16.80;;;15.23;;
24259;SDS011;12384;48.112;18.418;2022-10-16T06:34:55;16.23;;;14.93;;
24259;SDS011;12384;48.112;18.418;2022-10-16T06:37:24;16.20;;;14.67;;
24259;SDS011;12384;48.112;18.418;2022-10-16T06:39:53;16.03;;;14.67;;
24259;SDS011;12384;48.112;18.418;2022-10-16T06:42:21;15.03;;;13.67;;
24259;SDS011;12384;48.112;18.418;2022-10-16T06:44:52;15.27;;;13.80;;
24259;SDS011;12384;48.112;18.418;2022-10-16T06:47:20;14.00;;;12.70;;
24259;SDS011;12384;48.112;18.418;2022-10-16T06:49:49;15.90;;;14.47;;
24259;SDS011;12384;48.112;18.418;2022-10-16T06:52:20;14.57;;;13.43;;
24259;SDS011;12384;48.112;18.418;2022-10-16T06:54:49;13.83;;;12.77;;
24259;SDS011;12384;48.112;18.418;2022-10-16T06:57:17;14.07;;;12.83;;
24259;SDS011;12384;48.112;18.418;2022-10-16T06:59:46;15.10;;;13.90;;
24259;SDS011;12384;48.112;18.418;2022-10-16T07:02:21;15.53;;;14.20;;
24259;SDS011;12384;48.112;18.418;2022-10-16T07:04:51;15.67;;;14.07;;
24259;SDS011;12384;48.112;18.418;2022-10-16T07:07:19;14.03;;;12.93;;
24259;SDS011;12384;48.112;18.418;2022-10-16T07:09:51;14.27;;;12.87;;
24259;SDS011;12384;48.112;18.418;2022-10-16T07:12:19;14.20;;;12.93;;
24259;SDS011;12384;48.112;18.418;2022-10-16T07:14:48;14.10;;;12.63;;
24259;SDS011;12384;48.112;18.418;2022-10-16T07:17:18;14.27;;;12.97;;
24259;SDS011;12384;48.112;18.418;2022-10-16T07:19:48;12.63;;;11.37;;
24259;SDS011;12384;48.112;18.418;2022-10-16T07:22:19;12.33;;;11.33;;
24259;SDS011;12384;48.112;18.418;2022-10-16T07:24:47;13.00;;;12.00;;
24259;SDS011;12384;48.112;18.418;2022-10-16T07:27:18;13.23;;;12.10;;
24259;SDS011;12384;48.112;18.418;2022-10-16T07:29:48;13.85;;;12.75;;
24259;SDS011;12384;48.112;18.418;2022-10-16T07:32:17;13.63;;;12.40;;
24259;SDS011;12384;48.112;18.418;2022-10-16T07:34:45;14.30;;;13.20;;
24259;SDS011;12384;48.112;18.418;2022-10-16T07:37:15;15.00;;;13.70;;
24259;SDS011;12384;48.112;18.418;2022-10-16T07:39:44;14.60;;;13.50;;
24259;SDS011;12384;48.112;18.418;2022-10-16T07:42:12;15.00;;;13.73;;
24259;SDS011;12384;48.112;18.418;2022-10-16T07:44:41;15.13;;;13.77;;
24259;SDS011;12384;48.112;18.418;2022-10-16T07:47:09;14.90;;;13.73;;
24259;SDS011;12384;48.112;18.418;2022-10-16T07:49:38;14.83;;;13.70;;
24259;SDS011;12384;48.112;18.418;2022-10-16T07:52:08;14.73;;;13.63;;
24259;SDS011;12384;48.112;18.418;2022-10-16T07:54:36;14.23;;;13.07;;
24259;SDS011;12384;48.112;18.418;2022-10-16T07:57:05;14.97;;;13.67;;
24259;SDS011;12384;48.112;18.418;2022-10-16T07:59:33;14.57;;;13.37;;
24259;SDS011;12384;48.112;18.418;2022-10-16T08:02:02;13.37;;;12.27;;
24259;SDS011;12384;48.112;18.418;2022-10-16T08:04:30;14.50;;;13.27;;
24259;SDS011;12384;48.112;18.418;2022-10-16T08:06:59;13.43;;;12.23;;
24259;SDS011;12384;48.112;18.418;2022-10-16T08:09:29;13.47;;;12.47;;
24259;SDS011;12384;48.112;18.418;2022-10-16T08:11:57;15.10;;;13.80;;
24259;SDS011;12384;48.112;18.418;2022-10-16T08:14:28;13.97;;;12.80;;
24259;SDS011;12384;48.112;18.418;2022-10-16T08:16:56;14.70;;;13.30;;
24259;SDS011;12384;48.112;18.418;2022-10-16T08:19:25;12.17;;;11.13;;
24259;SDS011;12384;48.112;18.418;2022-10-16T08:21:53;13.00;;;12.00;;
24259;SDS011;12384;48.112;18.418;2022-10-16T08:24:22;12.30;;;11.10;;
24259;SDS011;12384;48.112;18.418;2022-10-16T08:26:54;12.47;;;11.47;;
24259;SDS011;12384;48.112;18.418;2022-10-16T08:29:22;12.97;;;11.80;;
24259;SDS011;12384;48.112;18.418;2022-10-16T08:31:51;12.57;;;11.37;;
24259;SDS011;12384;48.112;18.418;2022-10-16T08:34:19;13.13;;;12.00;;
24259;SDS011;12384;48.112;18.418;2022-10-16T08:36:48;11.50;;;10.60;;
24259;SDS011;12384;48.112;18.418;2022-10-16T08:39:16;12.27;;;11.00;;
24259;SDS011;12384;48.112;18.418;2022-10-16T08:41:59;12.13;;;10.27;;
24259;SDS011;12384;48.112;18.418;2022-10-16T08:44:58;11.32;;;10.43;;
24259;SDS011;12384;48.112;18.418;2022-10-16T08:47:41;10.27;;;9.50;;
24259;SDS011;12384;48.112;18.418;2022-10-16T08:50:17;11.32;;;10.32;;
24259;SDS011;12384;48.112;18.418;2022-10-16T08:52:50;11.63;;;10.63;;
24259;SDS011;12384;48.112;18.418;2022-10-16T08:55:24;11.75;;;10.80;;
24259;SDS011;12384;48.112;18.418;2022-10-16T08:58:01;11.13;;;10.32;;
24259;SDS011;12384;48.112;18.418;2022-10-16T09:00:29;11.00;;;10.10;;
24259;SDS011;12384;48.112;18.418;2022-10-16T09:03:00;13.27;;;11.10;;
24259;SDS011;12384;48.112;18.418;2022-10-16T09:08:37;12.68;;;11.32;;
24259;SDS011;12384;48.112;18.418;2022-10-16T09:11:17;13.45;;;12.40;;
24259;SDS011;12384;48.112;18.418;2022-10-16T09:13:57;12.52;;;11.30;;
24259;SDS011;12384;48.112;18.418;2022-10-16T09:16:33;11.85;;;10.77;;
24259;SDS011;12384;48.112;18.418;2022-10-16T09:19:05;12.32;;;11.00;;
24259;SDS011;12384;48.112;18.418;2022-10-16T09:21:51;11.55;;;10.55;;
24259;SDS011;12384;48.112;18.418;2022-10-16T09:24:20;12.50;;;11.45;;
24259;SDS011;12384;48.112;18.418;2022-10-16T09:26:54;11.15;;;10.27;;
24259;SDS011;12384;48.112;18.418;2022-10-16T09:29:24;13.07;;;12.07;;
24259;SDS011;12384;48.112;18.418;2022-10-16T09:31:53;11.65;;;10.55;;
24259;SDS011;12384;48.112;18.418;2022-10-16T09:34:34;11.30;;;10.30;;
24259;SDS011;12384;48.112;18.418;2022-10-16T09:37:09;12.10;;;11.07;;
24259;SDS011;12384;48.112;18.418;2022-10-16T09:39:44;12.10;;;11.20;;
24259;SDS011;12384;48.112;18.418;2022-10-16T09:42:14;11.07;;;10.25;;
24259;SDS011;12384;48.112;18.418;2022-10-16T09:44:48;12.87;;;11.87;;
24259;SDS011;12384;48.112;18.418;2022-10-16T09:47:19;11.53;;;10.63;;
24259;SDS011;12384;48.112;18.418;2022-10-16T09:49:51;12.97;;;11.83;;
24259;SDS011;12384;48.112;18.418;2022-10-16T09:52:21;12.07;;;11.17;;
24259;SDS011;12384;48.112;18.418;2022-10-16T09:54:50;11.23;;;10.43;;
24259;SDS011;12384;48.112;18.418;2022-10-16T09:57:21;12.97;;;11.77;;
24259;SDS011;12384;48.112;18.418;2022-10-16T09:59:52;11.20;;;10.33;;
24259;SDS011;12384;48.112;18.418;2022-10-16T10:02:26;13.37;;;12.27;;
24259;SDS011;12384;48.112;18.418;2022-10-16T10:04:58;12.40;;;11.27;;
24259;SDS011;12384;48.112;18.418;2022-10-16T10:07:27;12.50;;;11.30;;
24259;SDS011;12384;48.112;18.418;2022-10-16T10:09:59;12.33;;;11.27;;
24259;SDS011;12384;48.112;18.418;2022-10-16T10:12:30;13.67;;;12.60;;
24259;SDS011;12384;48.112;18.418;2022-10-16T10:15:05;15.77;;;14.23;;
24259;SDS011;12384;48.112;18.418;2022-10-16T10:17:45;14.53;;;13.43;;
24259;SDS011;12384;48.112;18.418;2022-10-16T10:20:25;13.97;;;12.93;;
24259;SDS011;12384;48.112;18.418;2022-10-16T10:22:55;14.97;;;13.57;;
24259;SDS011;12384;48.112;18.418;2022-10-16T10:25:31;14.00;;;12.90;;
24259;SDS011;12384;48.112;18.418;2022-10-16T10:31:21;13.97;;;12.83;;
24259;SDS011;12384;48.112;18.418;2022-10-16T10:33:56;13.57;;;12.47;;
24259;SDS011;12384;48.112;18.418;2022-10-16T10:36:29;14.53;;;13.43;;
24259;SDS011;12384;48.112;18.418;2022-10-16T10:39:02;12.67;;;11.70;;
24259;SDS011;12384;48.112;18.418;2022-10-16T10:44:35;12.23;;;11.23;;
24259;SDS011;12384;48.112;18.418;2022-10-16T10:47:19;11.93;;;11.00;;
24259;SDS011;12384;48.112;18.418;2022-10-16T10:49:57;11.88;;;10.88;;
24259;SDS011;12384;48.112;18.418;2022-10-16T10:52:38;12.43;;;11.40;;
24259;SDS011;12384;48.112;18.418;2022-10-16T10:55:20;12.52;;;11.60;;
24259;SDS011;12384;48.112;18.418;2022-10-16T10:57:59;11.68;;;10.68;;
24259;SDS011;12384;48.112;18.418;2022-10-16T11:00:41;12.32;;;11.27;;
24259;SDS011;12384;48.112;18.418;2022-10-16T11:03:24;12.15;;;11.23;;
24259;SDS011;12384;48.112;18.418;2022-10-16T11:06:03;13.40;;;12.23;;
24259;SDS011;12384;48.112;18.418;2022-10-16T11:08:36;45.90;;;40.83;;
24259;SDS011;12384;48.112;18.418;2022-10-16T11:11:09;16.42;;;14.93;;
24259;SDS011;12384;48.112;18.418;2022-10-16T11:13:44;12.48;;;11.50;;
24259;SDS011;12384;48.112;18.418;2022-10-16T11:16:20;13.68;;;12.57;;
24259;SDS011;12384;48.112;18.418;2022-10-16T11:18:55;13.30;;;12.10;;
24259;SDS011;12384;48.112;18.418;2022-10-16T11:21:27;14.57;;;13.20;;
24259;SDS011;12384;48.112;18.418;2022-10-16T11:24:01;13.43;;;12.32;;
24259;SDS011;12384;48.112;18.418;2022-10-16T11:26:39;15.23;;;13.82;;
24259;SDS011;12384;48.112;18.418;2022-10-16T11:29:12;15.10;;;12.52;;
24259;SDS011;12384;48.112;18.418;2022-10-16T11:31:46;13.93;;;12.60;;
24259;SDS011;12384;48.112;18.418;2022-10-16T11:34:22;13.25;;;11.90;;
24259;SDS011;12384;48.112;18.418;2022-10-16T11:37:01;17.73;;;13.13;;
24259;SDS011;12384;48.112;18.418;2022-10-16T11:39:36;12.48;;;11.27;;
24259;SDS011;12384;48.112;18.418;2022-10-16T11:42:09;12.57;;;11.63;;
24259;SDS011;12384;48.112;18.418;2022-10-16T11:44:43;12.60;;;11.50;;
24259;SDS011;12384;48.112;18.418;2022-10-16T11:50:28;13.00;;;11.60;;
24259;SDS011;12384;48.112;18.418;2022-10-16T11:53:04;31.05;;;13.82;;
24259;SDS011;12384;48.112;18.418;2022-10-16T11:55:41;28.63;;;20.52;;
24259;SDS011;12384;48.112;18.418;2022-10-16T11:58:16;16.30;;;12.30;;
24259;SDS011;12384;48.112;18.418;2022-10-16T12:00:55;13.67;;;12.30;;
24259;SDS011;12384;48.112;18.418;2022-10-16T12:03:29;24.63;;;12.93;;
24259;SDS011;12384;48.112;18.418;2022-10-16T12:06:06;13.82;;;12.65;;
24259;SDS011;12384;48.112;18.418;2022-10-16T12:08:46;14.37;;;12.87;;
24259;SDS011;12384;48.112;18.418;2022-10-16T12:11:23;13.10;;;12.00;;
24259;SDS011;12384;48.112;18.418;2022-10-16T12:14:19;12.30;;;11.20;;
24259;SDS011;12384;48.112;18.418;2022-10-16T12:16:50;15.73;;;13.00;;
24259;SDS011;12384;48.112;18.418;2022-10-16T12:19:21;14.60;;;13.30;;
24259;SDS011;12384;48.112;18.418;2022-10-16T12:21:54;14.40;;;13.23;;
24259;SDS011;12384;48.112;18.418;2022-10-16T12:24:31;13.80;;;12.57;;
24259;SDS011;12384;48.112;18.418;2022-10-16T12:27:02;14.80;;;13.27;;
24259;SDS011;12384;48.112;18.418;2022-10-16T12:29:33;12.70;;;11.70;;
24259;SDS011;12384;48.112;18.418;2022-10-16T12:32:05;14.37;;;13.27;;
24259;SDS011;12384;48.112;18.418;2022-10-16T12:35:16;14.20;;;13.02;;
24259;SDS011;12384;48.112;18.418;2022-10-16T12:37:49;13.23;;;12.23;;
24259;SDS011;12384;48.112;18.418;2022-10-16T12:40:28;13.52;;;12.43;;
24259;SDS011;12384;48.112;18.418;2022-10-16T12:42:58;12.57;;;11.68;;
24259;SDS011;12384;48.112;18.418;2022-10-16T12:45:38;12.63;;;11.75;;
24259;SDS011;12384;48.112;18.418;2022-10-16T12:48:18;12.80;;;11.80;;
24259;SDS011;12384;48.112;18.418;2022-10-16T12:51:12;13.45;;;12.35;;
24259;SDS011;12384;48.112;18.418;2022-10-16T12:53:58;13.77;;;12.63;;
24259;SDS011;12384;48.112;18.418;2022-10-16T12:56:31;11.98;;;11.07;;
24259;SDS011;12384;48.112;18.418;2022-10-16T12:59:10;11.70;;;10.90;;
24259;SDS011;12384;48.112;18.418;2022-10-16T13:01:51;12.27;;;11.35;;
24259;SDS011;12384;48.112;18.418;2022-10-16T13:04:36;11.65;;;10.85;;
24259;SDS011;12384;48.112;18.418;2022-10-16T13:07:19;12.07;;;11.07;;
24259;SDS011;12384;48.112;18.418;2022-10-16T13:10:14;12.38;;;11.30;;
24259;SDS011;12384;48.112;18.418;2022-10-16T13:15:45;13.30;;;12.23;;
24259;SDS011;12384;48.112;18.418;2022-10-16T13:18:22;12.38;;;11.38;;
24259;SDS011;12384;48.112;18.418;2022-10-16T13:21:01;12.98;;;11.70;;
24259;SDS011;12384;48.112;18.418;2022-10-16T13:23:41;11.35;;;10.55;;
24259;SDS011;12384;48.112;18.418;2022-10-16T13:26:19;11.68;;;10.77;;
24259;SDS011;12384;48.112;18.418;2022-10-16T13:28:58;11.32;;;10.52;;
24259;SDS011;12384;48.112;18.418;2022-10-16T13:31:28;11.00;;;10.00;;
24259;SDS011;12384;48.112;18.418;2022-10-16T13:33:58;11.95;;;10.95;;
24259;SDS011;12384;48.112;18.418;2022-10-16T13:36:29;12.50;;;11.40;;
24259;SDS011;12384;48.112;18.418;2022-10-16T13:38:59;11.52;;;10.73;;
24259;SDS011;12384;48.112;18.418;2022-10-16T13:41:35;12.30;;;11.25;;
24259;SDS011;12384;48.112;18.418;2022-10-16T13:44:04;10.50;;;9.68;;
24259;SDS011;12384;48.112;18.418;2022-10-16T13:46:39;10.88;;;9.80;;
24259;SDS011;12384;48.112;18.418;2022-10-16T13:49:11;10.75;;;9.85;;
24259;SDS011;12384;48.112;18.418;2022-10-16T13:51:41;10.18;;;9.35;;
24259;SDS011;12384;48.112;18.418;2022-10-16T13:54:22;11.98;;;11.10;;
24259;SDS011;12384;48.112;18.418;2022-10-16T13:56:53;12.07;;;11.10;;
24259;SDS011;12384;48.112;18.418;2022-10-16T13:59:35;12.02;;;11.23;;
24259;SDS011;12384;48.112;18.418;2022-10-16T14:02:08;11.25;;;10.45;;
24259;SDS011;12384;48.112;18.418;2022-10-16T14:04:46;11.35;;;10.52;;
24259;SDS011;12384;48.112;18.418;2022-10-16T14:07:18;12.52;;;11.40;;
24259;SDS011;12384;48.112;18.418;2022-10-16T14:09:51;16.35;;;14.68;;
24259;SDS011;12384;48.112;18.418;2022-10-16T14:12:22;14.05;;;12.90;;
24259;SDS011;12384;48.112;18.418;2022-10-16T14:14:54;14.10;;;12.70;;
24259;SDS011;12384;48.112;18.418;2022-10-16T14:17:25;14.20;;;13.00;;
24259;SDS011;12384;48.112;18.418;2022-10-16T14:19:56;12.65;;;11.65;;
24259;SDS011;12384;48.112;18.418;2022-10-16T14:22:31;12.10;;;11.00;;
24259;SDS011;12384;48.112;18.418;2022-10-16T14:25:02;13.60;;;12.60;;
24259;SDS011;12384;48.112;18.418;2022-10-16T14:27:57;12.48;;;11.52;;
24259;SDS011;12384;48.112;18.418;2022-10-16T14:30:28;14.20;;;13.20;;
24259;SDS011;12384;48.112;18.418;2022-10-16T14:32:58;14.23;;;13.13;;
24259;SDS011;12384;48.112;18.418;2022-10-16T14:35:29;13.80;;;12.60;;
24259;SDS011;12384;48.112;18.418;2022-10-16T14:37:59;14.00;;;12.90;;
24259;SDS011;12384;48.112;18.418;2022-10-16T14:40:29;14.93;;;13.82;;
24259;SDS011;12384;48.112;18.418;2022-10-16T14:43:00;15.77;;;14.23;;
24259;SDS011;12384;48.112;18.418;2022-10-16T14:45:31;14.90;;;13.70;;
24259;SDS011;12384;48.112;18.418;2022-10-16T14:48:02;14.77;;;13.15;;
24259;SDS011;12384;48.112;18.418;2022-10-16T14:50:33;14.13;;;12.75;;
24259;SDS011;12384;48.112;18.418;2022-10-16T14:53:04;16.60;;;15.05;;
24259;SDS011;12384;48.112;18.418;2022-10-16T14:55:38;17.50;;;15.65;;